sensor_id;sensor_type;location;lat;lon;timestamp;P1;durP1;ratioP1;P2;durP2;ratioP2
13321;SDS011;6730;46.248;6.930;2023-05-24T00:01:15;8.68;;;7.30;;
13321;SDS011;6730;46.248;6.930;2023-05-24T00:03:40;8.57;;;7.30;;
13321;SDS011;6730;46.248;6.930;2023-05-24T00:06:06;10.05;;;7.45;;
13321;SDS011;6730;46.248;6.930;2023-05-24T00:08:32;9.82;;;7.25;;
13321;SDS011;6730;46.248;6.930;2023-05-24T00:10:58;8.05;;;7.25;;
13321;SDS011;6730;46.248;6.930;2023-05-24T00:13:24;7.80;;;6.97;;
13321;SDS011;6730;46.248;6.930;2023-05-24T00:15:51;8.10;;;7.30;;
13321;SDS011;6730;46.248;6.930;2023-05-24T00:18:16;7.80;;;6.97;;
13321;SDS011;6730;46.248;6.930;2023-05-24T00:20:43;8.43;;;7.50;;
13321;SDS011;6730;46.248;6.930;2023-05-24T00:23:08;9.00;;;8.10;;
13321;SDS011;6730;46.248;6.930;2023-05-24T00:25:34;8.75;;;7.38;;
13321;SDS011;6730;46.248;6.930;2023-05-24T00:28:00;8.88;;;7.93;;
13321;SDS011;6730;46.248;6.930;2023-05-24T00:30:26;8.15;;;7.32;;
13321;SDS011;6730;46.248;6.930;2023-05-24T00:32:51;8.80;;;7.32;;
13321;SDS011;6730;46.248;6.930;2023-05-24T00:35:17;11.02;;;6.95;;
13321;SDS011;6730;46.248;6.930;2023-05-24T00:37:43;8.10;;;7.30;;
13321;SDS011;6730;46.248;6.930;2023-05-24T00:40:09;7.55;;;6.80;;
13321;SDS011;6730;46.248;6.930;2023-05-24T00:42:36;7.80;;;7.00;;
13321;SDS011;6730;46.248;6.930;2023-05-24T00:45:02;9.55;;;8.05;;
13321;SDS011;6730;46.248;6.930;2023-05-24T00:47:28;8.60;;;7.63;;
13321;SDS011;6730;46.248;6.930;2023-05-24T00:49:54;8.88;;;7.97;;
13321;SDS011;6730;46.248;6.930;2023-05-24T00:52:20;9.15;;;8.25;;
13321;SDS011;6730;46.248;6.930;2023-05-24T00:54:46;8.75;;;7.85;;
13321;SDS011;6730;46.248;6.930;2023-05-24T00:57:12;8.65;;;7.60;;
13321;SDS011;6730;46.248;6.930;2023-05-24T00:59:38;8.77;;;7.32;;
13321;SDS011;6730;46.248;6.930;2023-05-24T01:02:04;8.48;;;7.47;;
13321;SDS011;6730;46.248;6.930;2023-05-24T01:04:30;9.13;;;7.70;;
13321;SDS011;6730;46.248;6.930;2023-05-24T01:12:35;8.45;;;7.00;;
13321;SDS011;6730;46.248;6.930;2023-05-24T01:21:23;8.68;;;7.72;;
13321;SDS011;6730;46.248;6.930;2023-05-24T01:29:03;8.93;;;7.70;;
13321;SDS011;6730;46.248;6.930;2023-05-24T01:31:29;8.57;;;7.47;;
13321;SDS011;6730;46.248;6.930;2023-05-24T01:33:55;9.52;;;7.97;;
13321;SDS011;6730;46.248;6.930;2023-05-24T01:36:21;8.57;;;7.68;;
13321;SDS011;6730;46.248;6.930;2023-05-24T01:38:46;10.00;;;8.13;;
13321;SDS011;6730;46.248;6.930;2023-05-24T01:41:49;10.02;;;9.02;;
13321;SDS011;6730;46.248;6.930;2023-05-24T01:50:10;10.02;;;8.15;;
13321;SDS011;6730;46.248;6.930;2023-05-24T01:53:01;9.77;;;8.02;;
13321;SDS011;6730;46.248;6.930;2023-05-24T01:55:29;10.13;;;8.93;;
13321;SDS011;6730;46.248;6.930;2023-05-24T01:57:57;9.88;;;8.65;;
13321;SDS011;6730;46.248;6.930;2023-05-24T02:00:26;11.50;;;8.85;;
13321;SDS011;6730;46.248;6.930;2023-05-24T02:02:53;9.10;;;8.05;;
13321;SDS011;6730;46.248;6.930;2023-05-24T02:05:20;9.77;;;8.30;;
13321;SDS011;6730;46.248;6.930;2023-05-24T02:07:46;9.32;;;8.35;;
13321;SDS011;6730;46.248;6.930;2023-05-24T02:10:11;8.75;;;7.85;;
13321;SDS011;6730;46.248;6.930;2023-05-24T02:12:37;10.55;;;7.90;;
13321;SDS011;6730;46.248;6.930;2023-05-24T02:15:03;8.55;;;7.65;;
13321;SDS011;6730;46.248;6.930;2023-05-24T02:17:30;9.35;;;7.68;;
13321;SDS011;6730;46.248;6.930;2023-05-24T02:19:57;9.60;;;8.07;;
13321;SDS011;6730;46.248;6.930;2023-05-24T02:22:24;10.48;;;8.20;;
13321;SDS011;6730;46.248;6.930;2023-05-24T02:24:49;11.85;;;9.13;;
13321;SDS011;6730;46.248;6.930;2023-05-24T02:27:15;9.43;;;8.23;;
13321;SDS011;6730;46.248;6.930;2023-05-24T02:29:41;12.38;;;9.15;;
13321;SDS011;6730;46.248;6.930;2023-05-24T02:32:07;10.38;;;8.30;;
13321;SDS011;6730;46.248;6.930;2023-05-24T02:34:32;9.15;;;8.18;;
13321;SDS011;6730;46.248;6.930;2023-05-24T02:36:58;8.23;;;7.40;;
13321;SDS011;6730;46.248;6.930;2023-05-24T02:39:24;11.07;;;9.15;;
13321;SDS011;6730;46.248;6.930;2023-05-24T02:41:49;9.07;;;8.18;;
13321;SDS011;6730;46.248;6.930;2023-05-24T02:44:15;10.32;;;8.35;;
13321;SDS011;6730;46.248;6.930;2023-05-24T02:46:41;9.95;;;8.73;;
13321;SDS011;6730;46.248;6.930;2023-05-24T02:49:06;12.45;;;9.80;;
13321;SDS011;6730;46.248;6.930;2023-05-24T02:51:32;9.20;;;8.18;;
13321;SDS011;6730;46.248;6.930;2023-05-24T02:53:58;13.68;;;9.65;;
13321;SDS011;6730;46.248;6.930;2023-05-24T02:56:23;11.07;;;9.25;;
13321;SDS011;6730;46.248;6.930;2023-05-24T02:58:50;11.65;;;9.40;;
13321;SDS011;6730;46.248;6.930;2023-05-24T03:01:18;12.57;;;10.18;;
13321;SDS011;6730;46.248;6.930;2023-05-24T03:03:45;12.48;;;9.43;;
13321;SDS011;6730;46.248;6.930;2023-05-24T03:06:11;9.45;;;8.48;;
13321;SDS011;6730;46.248;6.930;2023-05-24T03:08:38;10.95;;;9.70;;
13321;SDS011;6730;46.248;6.930;2023-05-24T03:11:04;10.27;;;8.60;;
13321;SDS011;6730;46.248;6.930;2023-05-24T03:13:30;9.27;;;8.23;;
13321;SDS011;6730;46.248;6.930;2023-05-24T03:15:56;12.02;;;9.05;;
13321;SDS011;6730;46.248;6.930;2023-05-24T03:18:22;10.13;;;8.93;;
13321;SDS011;6730;46.248;6.930;2023-05-24T03:20:47;11.13;;;9.38;;
13321;SDS011;6730;46.248;6.930;2023-05-24T03:23:13;11.75;;;9.00;;
13321;SDS011;6730;46.248;6.930;2023-05-24T03:25:39;8.45;;;7.65;;
13321;SDS011;6730;46.248;6.930;2023-05-24T03:28:05;11.52;;;9.57;;
13321;SDS011;6730;46.248;6.930;2023-05-24T03:30:31;13.15;;;10.48;;
13321;SDS011;6730;46.248;6.930;2023-05-24T03:32:57;11.18;;;9.98;;
13321;SDS011;6730;46.248;6.930;2023-05-24T03:35:22;13.35;;;10.70;;
13321;SDS011;6730;46.248;6.930;2023-05-24T03:37:48;9.85;;;7.82;;
13321;SDS011;6730;46.248;6.930;2023-05-24T03:40:14;9.38;;;8.48;;
13321;SDS011;6730;46.248;6.930;2023-05-24T03:42:40;11.65;;;9.10;;
13321;SDS011;6730;46.248;6.930;2023-05-24T03:45:05;14.93;;;10.38;;
13321;SDS011;6730;46.248;6.930;2023-05-24T03:47:32;9.82;;;8.82;;
13321;SDS011;6730;46.248;6.930;2023-05-24T03:49:57;11.60;;;8.95;;
13321;SDS011;6730;46.248;6.930;2023-05-24T03:52:23;14.70;;;10.20;;
13321;SDS011;6730;46.248;6.930;2023-05-24T03:54:49;11.70;;;10.50;;
13321;SDS011;6730;46.248;6.930;2023-05-24T03:57:16;12.57;;;9.95;;
13321;SDS011;6730;46.248;6.930;2023-05-24T03:59:41;11.95;;;10.43;;
13321;SDS011;6730;46.248;6.930;2023-05-24T04:02:07;12.52;;;10.70;;
13321;SDS011;6730;46.248;6.930;2023-05-24T04:04:33;14.07;;;10.70;;
13321;SDS011;6730;46.248;6.930;2023-05-24T04:06:59;13.95;;;11.02;;
13321;SDS011;6730;46.248;6.930;2023-05-24T04:09:24;13.88;;;11.27;;
13321;SDS011;6730;46.248;6.930;2023-05-24T04:11:50;14.32;;;11.98;;
13321;SDS011;6730;46.248;6.930;2023-05-24T04:14:16;15.48;;;11.90;;
13321;SDS011;6730;46.248;6.930;2023-05-24T04:16:41;16.48;;;11.80;;
13321;SDS011;6730;46.248;6.930;2023-05-24T04:19:09;14.05;;;11.20;;
13321;SDS011;6730;46.248;6.930;2023-05-24T04:21:36;11.80;;;10.48;;
13321;SDS011;6730;46.248;6.930;2023-05-24T04:24:02;10.55;;;9.00;;
13321;SDS011;6730;46.248;6.930;2023-05-24T04:26:29;11.25;;;9.93;;
13321;SDS011;6730;46.248;6.930;2023-05-24T04:28:55;12.25;;;10.95;;
13321;SDS011;6730;46.248;6.930;2023-05-24T04:31:21;12.40;;;9.68;;
13321;SDS011;6730;46.248;6.930;2023-05-24T04:33:47;10.52;;;9.43;;
13321;SDS011;6730;46.248;6.930;2023-05-24T04:36:14;10.70;;;8.48;;
13321;SDS011;6730;46.248;6.930;2023-05-24T04:38:40;13.40;;;9.45;;
13321;SDS011;6730;46.248;6.930;2023-05-24T04:41:06;10.52;;;9.43;;
13321;SDS011;6730;46.248;6.930;2023-05-24T04:43:32;10.63;;;8.68;;
13321;SDS011;6730;46.248;6.930;2023-05-24T04:46:04;10.23;;;8.73;;
13321;SDS011;6730;46.248;6.930;2023-05-24T04:48:30;11.02;;;9.13;;
13321;SDS011;6730;46.248;6.930;2023-05-24T04:50:56;10.95;;;9.80;;
13321;SDS011;6730;46.248;6.930;2023-05-24T04:53:22;12.50;;;9.25;;
13321;SDS011;6730;46.248;6.930;2023-05-24T04:55:48;13.35;;;10.32;;
13321;SDS011;6730;46.248;6.930;2023-05-24T04:58:15;10.40;;;9.32;;
13321;SDS011;6730;46.248;6.930;2023-05-24T05:00:41;13.73;;;10.77;;
13321;SDS011;6730;46.248;6.930;2023-05-24T05:03:07;11.55;;;10.27;;
13321;SDS011;6730;46.248;6.930;2023-05-24T05:05:33;11.23;;;9.30;;
13321;SDS011;6730;46.248;6.930;2023-05-24T05:07:59;11.80;;;10.38;;
13321;SDS011;6730;46.248;6.930;2023-05-24T05:10:25;14.38;;;10.38;;
13321;SDS011;6730;46.248;6.930;2023-05-24T05:12:51;11.65;;;10.27;;
13321;SDS011;6730;46.248;6.930;2023-05-24T05:15:17;11.68;;;10.10;;
13321;SDS011;6730;46.248;6.930;2023-05-24T05:17:45;12.05;;;10.05;;
13321;SDS011;6730;46.248;6.930;2023-05-24T05:20:10;11.90;;;10.55;;
13321;SDS011;6730;46.248;6.930;2023-05-24T05:22:36;12.60;;;9.75;;
13321;SDS011;6730;46.248;6.930;2023-05-24T05:25:02;13.13;;;10.80;;
13321;SDS011;6730;46.248;6.930;2023-05-24T05:27:34;12.70;;;10.73;;
13321;SDS011;6730;46.248;6.930;2023-05-24T05:29:59;14.40;;;11.88;;
13321;SDS011;6730;46.248;6.930;2023-05-24T05:32:25;14.13;;;11.77;;
13321;SDS011;6730;46.248;6.930;2023-05-24T05:34:50;14.00;;;11.85;;
13321;SDS011;6730;46.248;6.930;2023-05-24T05:37:16;13.45;;;11.23;;
13321;SDS011;6730;46.248;6.930;2023-05-24T05:39:42;15.07;;;11.10;;
13321;SDS011;6730;46.248;6.930;2023-05-24T05:42:07;12.52;;;10.98;;
13321;SDS011;6730;46.248;6.930;2023-05-24T05:44:33;10.75;;;9.38;;
13321;SDS011;6730;46.248;6.930;2023-05-24T05:46:58;12.18;;;10.88;;
13321;SDS011;6730;46.248;6.930;2023-05-24T05:49:24;12.57;;;9.63;;
13321;SDS011;6730;46.248;6.930;2023-05-24T05:51:50;10.35;;;9.18;;
13321;SDS011;6730;46.248;6.930;2023-05-24T05:54:17;11.13;;;9.23;;
13321;SDS011;6730;46.248;6.930;2023-05-24T05:56:43;11.95;;;9.48;;
13321;SDS011;6730;46.248;6.930;2023-05-24T05:59:11;13.50;;;10.90;;
13321;SDS011;6730;46.248;6.930;2023-05-24T06:01:37;12.13;;;10.07;;
13321;SDS011;6730;46.248;6.930;2023-05-24T06:04:03;14.27;;;10.55;;
13321;SDS011;6730;46.248;6.930;2023-05-24T06:06:28;13.75;;;10.45;;
13321;SDS011;6730;46.248;6.930;2023-05-24T06:08:54;14.57;;;10.02;;
13321;SDS011;6730;46.248;6.930;2023-05-24T06:11:20;11.85;;;9.70;;
13321;SDS011;6730;46.248;6.930;2023-05-24T06:13:45;12.02;;;10.38;;
13321;SDS011;6730;46.248;6.930;2023-05-24T06:16:11;13.02;;;10.13;;
13321;SDS011;6730;46.248;6.930;2023-05-24T06:18:38;16.05;;;9.98;;
13321;SDS011;6730;46.248;6.930;2023-05-24T06:21:04;13.05;;;10.68;;
13321;SDS011;6730;46.248;6.930;2023-05-24T06:23:34;13.18;;;10.13;;
13321;SDS011;6730;46.248;6.930;2023-05-24T06:26:00;13.10;;;10.25;;
13321;SDS011;6730;46.248;6.930;2023-05-24T06:28:26;12.38;;;9.90;;
13321;SDS011;6730;46.248;6.930;2023-05-24T06:30:51;12.98;;;10.40;;
13321;SDS011;6730;46.248;6.930;2023-05-24T06:33:17;11.32;;;10.13;;
13321;SDS011;6730;46.248;6.930;2023-05-24T06:35:43;13.15;;;9.38;;
13321;SDS011;6730;46.248;6.930;2023-05-24T06:38:08;14.15;;;10.85;;
13321;SDS011;6730;46.248;6.930;2023-05-24T06:40:34;14.30;;;11.38;;
13321;SDS011;6730;46.248;6.930;2023-05-24T06:43:00;13.00;;;10.15;;
13321;SDS011;6730;46.248;6.930;2023-05-24T06:45:25;12.30;;;10.80;;
13321;SDS011;6730;46.248;6.930;2023-05-24T06:47:51;16.33;;;10.85;;
13321;SDS011;6730;46.248;6.930;2023-05-24T06:50:17;14.05;;;10.88;;
13321;SDS011;6730;46.248;6.930;2023-05-24T06:52:43;14.70;;;11.55;;
13321;SDS011;6730;46.248;6.930;2023-05-24T06:55:09;13.15;;;10.60;;
13321;SDS011;6730;46.248;6.930;2023-05-24T06:57:34;13.23;;;11.82;;
13321;SDS011;6730;46.248;6.930;2023-05-24T07:00:00;14.93;;;10.95;;
13321;SDS011;6730;46.248;6.930;2023-05-24T07:02:25;11.40;;;9.73;;
13321;SDS011;6730;46.248;6.930;2023-05-24T07:04:52;13.07;;;10.35;;
13321;SDS011;6730;46.248;6.930;2023-05-24T07:07:21;15.38;;;11.38;;
13321;SDS011;6730;46.248;6.930;2023-05-24T07:09:47;14.52;;;11.00;;
13321;SDS011;6730;46.248;6.930;2023-05-24T07:12:12;13.88;;;11.95;;
13321;SDS011;6730;46.248;6.930;2023-05-24T07:14:38;13.13;;;10.82;;
13321;SDS011;6730;46.248;6.930;2023-05-24T07:17:04;13.02;;;10.23;;
13321;SDS011;6730;46.248;6.930;2023-05-24T07:19:30;13.68;;;11.70;;
13321;SDS011;6730;46.248;6.930;2023-05-24T07:21:57;14.52;;;10.95;;
13321;SDS011;6730;46.248;6.930;2023-05-24T07:24:23;12.70;;;11.10;;
13321;SDS011;6730;46.248;6.930;2023-05-24T07:26:50;13.95;;;11.45;;
13321;SDS011;6730;46.248;6.930;2023-05-24T07:29:17;13.70;;;10.77;;
13321;SDS011;6730;46.248;6.930;2023-05-24T07:31:43;12.50;;;10.55;;
13321;SDS011;6730;46.248;6.930;2023-05-24T07:34:09;12.88;;;10.93;;
13321;SDS011;6730;46.248;6.930;2023-05-24T07:36:35;11.88;;;10.50;;
13321;SDS011;6730;46.248;6.930;2023-05-24T07:39:01;11.40;;;10.20;;
13321;SDS011;6730;46.248;6.930;2023-05-24T07:41:29;12.95;;;11.07;;
13321;SDS011;6730;46.248;6.930;2023-05-24T07:43:54;12.82;;;10.45;;
13321;SDS011;6730;46.248;6.930;2023-05-24T07:46:20;13.60;;;11.80;;
13321;SDS011;6730;46.248;6.930;2023-05-24T07:48:46;12.70;;;11.40;;
13321;SDS011;6730;46.248;6.930;2023-05-24T07:51:12;13.43;;;11.57;;
13321;SDS011;6730;46.248;6.930;2023-05-24T07:53:38;16.25;;;12.55;;
13321;SDS011;6730;46.248;6.930;2023-05-24T07:56:04;14.52;;;11.32;;
13321;SDS011;6730;46.248;6.930;2023-05-24T07:58:31;12.73;;;11.18;;
13321;SDS011;6730;46.248;6.930;2023-05-24T08:00:57;15.95;;;12.10;;
13321;SDS011;6730;46.248;6.930;2023-05-24T08:03:23;13.32;;;11.15;;
13321;SDS011;6730;46.248;6.930;2023-05-24T08:05:50;12.73;;;10.63;;
13321;SDS011;6730;46.248;6.930;2023-05-24T08:08:16;13.45;;;11.20;;
13321;SDS011;6730;46.248;6.930;2023-05-24T08:10:43;14.50;;;12.27;;
13321;SDS011;6730;46.248;6.930;2023-05-24T08:13:09;10.82;;;9.10;;
13321;SDS011;6730;46.248;6.930;2023-05-24T08:15:36;12.50;;;10.82;;
13321;SDS011;6730;46.248;6.930;2023-05-24T08:18:02;14.90;;;11.98;;
13321;SDS011;6730;46.248;6.930;2023-05-24T08:20:29;11.57;;;10.07;;
13321;SDS011;6730;46.248;6.930;2023-05-24T08:22:55;14.15;;;11.50;;
13321;SDS011;6730;46.248;6.930;2023-05-24T08:25:21;13.45;;;11.48;;
13321;SDS011;6730;46.248;6.930;2023-05-24T08:27:47;13.70;;;12.20;;
13321;SDS011;6730;46.248;6.930;2023-05-24T08:30:13;11.32;;;9.65;;
13321;SDS011;6730;46.248;6.930;2023-05-24T08:32:40;13.73;;;11.43;;
13321;SDS011;6730;46.248;6.930;2023-05-24T08:35:06;13.10;;;11.00;;
13321;SDS011;6730;46.248;6.930;2023-05-24T08:37:32;15.20;;;12.57;;
13321;SDS011;6730;46.248;6.930;2023-05-24T08:39:58;15.23;;;12.15;;
13321;SDS011;6730;46.248;6.930;2023-05-24T08:42:23;18.25;;;13.10;;
13321;SDS011;6730;46.248;6.930;2023-05-24T08:44:57;16.73;;;13.75;;
13321;SDS011;6730;46.248;6.930;2023-05-24T08:47:27;20.80;;;13.70;;
13321;SDS011;6730;46.248;6.930;2023-05-24T08:49:54;19.63;;;15.20;;
13321;SDS011;6730;46.248;6.930;2023-05-24T08:52:21;16.55;;;13.95;;
13321;SDS011;6730;46.248;6.930;2023-05-24T08:54:48;17.60;;;14.07;;
13321;SDS011;6730;46.248;6.930;2023-05-24T08:57:14;17.45;;;14.68;;
13321;SDS011;6730;46.248;6.930;2023-05-24T08:59:41;16.30;;;12.80;;
13321;SDS011;6730;46.248;6.930;2023-05-24T09:02:10;18.08;;;12.90;;
13321;SDS011;6730;46.248;6.930;2023-05-24T09:04:38;20.58;;;14.70;;
13321;SDS011;6730;46.248;6.930;2023-05-24T09:07:08;22.00;;;15.13;;
13321;SDS011;6730;46.248;6.930;2023-05-24T09:09:34;19.27;;;14.50;;
13321;SDS011;6730;46.248;6.930;2023-05-24T09:12:08;18.77;;;13.98;;
13321;SDS011;6730;46.248;6.930;2023-05-24T09:14:38;17.40;;;14.30;;
13321;SDS011;6730;46.248;6.930;2023-05-24T09:17:09;18.45;;;14.18;;
13321;SDS011;6730;46.248;6.930;2023-05-24T09:19:37;17.33;;;14.73;;
13321;SDS011;6730;46.248;6.930;2023-05-24T09:22:04;16.83;;;14.45;;
13321;SDS011;6730;46.248;6.930;2023-05-24T09:24:31;19.33;;;13.63;;
13321;SDS011;6730;46.248;6.930;2023-05-24T09:27:05;20.00;;;13.98;;
13321;SDS011;6730;46.248;6.930;2023-05-24T09:29:34;17.40;;;15.38;;
13321;SDS011;6730;46.248;6.930;2023-05-24T09:32:00;19.55;;;15.32;;
13321;SDS011;6730;46.248;6.930;2023-05-24T09:34:28;16.70;;;13.18;;
13321;SDS011;6730;46.248;6.930;2023-05-24T09:37:02;19.63;;;14.07;;
13321;SDS011;6730;46.248;6.930;2023-05-24T09:39:28;21.23;;;15.73;;
13321;SDS011;6730;46.248;6.930;2023-05-24T09:41:54;21.17;;;16.13;;
13321;SDS011;6730;46.248;6.930;2023-05-24T09:44:24;19.77;;;15.57;;
13321;SDS011;6730;46.248;6.930;2023-05-24T09:46:53;19.27;;;15.48;;
13321;SDS011;6730;46.248;6.930;2023-05-24T09:49:25;18.42;;;14.85;;
13321;SDS011;6730;46.248;6.930;2023-05-24T09:51:51;22.42;;;15.95;;
13321;SDS011;6730;46.248;6.930;2023-05-24T09:54:16;22.95;;;16.23;;
13321;SDS011;6730;46.248;6.930;2023-05-24T09:56:42;19.85;;;15.63;;
13321;SDS011;6730;46.248;6.930;2023-05-24T09:59:10;20.85;;;15.05;;
13321;SDS011;6730;46.248;6.930;2023-05-24T10:01:36;19.60;;;15.32;;
13321;SDS011;6730;46.248;6.930;2023-05-24T10:04:02;19.90;;;15.88;;
13321;SDS011;6730;46.248;6.930;2023-05-24T10:06:32;19.45;;;14.50;;
13321;SDS011;6730;46.248;6.930;2023-05-24T10:09:01;21.55;;;14.85;;
13321;SDS011;6730;46.248;6.930;2023-05-24T10:11:33;18.70;;;14.95;;
13321;SDS011;6730;46.248;6.930;2023-05-24T10:14:02;21.60;;;16.15;;
13321;SDS011;6730;46.248;6.930;2023-05-24T10:16:30;19.75;;;13.73;;
13321;SDS011;6730;46.248;6.930;2023-05-24T10:18:55;18.23;;;14.73;;
13321;SDS011;6730;46.248;6.930;2023-05-24T10:21:22;18.60;;;14.73;;
13321;SDS011;6730;46.248;6.930;2023-05-24T10:23:50;19.80;;;14.90;;
13321;SDS011;6730;46.248;6.930;2023-05-24T10:26:22;17.33;;;14.18;;
13321;SDS011;6730;46.248;6.930;2023-05-24T10:28:51;19.55;;;15.45;;
13321;SDS011;6730;46.248;6.930;2023-05-24T10:31:23;19.15;;;15.35;;
13321;SDS011;6730;46.248;6.930;2023-05-24T10:33:54;20.98;;;15.50;;
13321;SDS011;6730;46.248;6.930;2023-05-24T10:36:22;24.10;;;15.93;;
13321;SDS011;6730;46.248;6.930;2023-05-24T10:38:50;22.02;;;15.15;;
13321;SDS011;6730;46.248;6.930;2023-05-24T10:41:16;21.10;;;16.20;;
13321;SDS011;6730;46.248;6.930;2023-05-24T10:43:44;20.45;;;15.40;;
13321;SDS011;6730;46.248;6.930;2023-05-24T10:46:13;25.30;;;16.40;;
13321;SDS011;6730;46.248;6.930;2023-05-24T10:48:40;18.55;;;13.93;;
13321;SDS011;6730;46.248;6.930;2023-05-24T10:54:11;20.48;;;15.02;;
13321;SDS011;6730;46.248;6.930;2023-05-24T10:56:44;18.50;;;14.82;;
13321;SDS011;6730;46.248;6.930;2023-05-24T10:59:21;19.38;;;15.80;;
13321;SDS011;6730;46.248;6.930;2023-05-24T11:01:52;26.40;;;15.73;;
13321;SDS011;6730;46.248;6.930;2023-05-24T11:04:19;22.80;;;16.63;;
13321;SDS011;6730;46.248;6.930;2023-05-24T11:09:13;19.65;;;16.40;;
13321;SDS011;6730;46.248;6.930;2023-05-24T11:11:48;19.13;;;15.60;;
13321;SDS011;6730;46.248;6.930;2023-05-24T11:14:18;26.50;;;16.98;;
13321;SDS011;6730;46.248;6.930;2023-05-24T11:16:47;22.27;;;16.65;;
13321;SDS011;6730;46.248;6.930;2023-05-24T11:19:18;20.95;;;15.85;;
13321;SDS011;6730;46.248;6.930;2023-05-24T11:21:49;24.33;;;17.55;;
13321;SDS011;6730;46.248;6.930;2023-05-24T11:24:17;20.33;;;17.45;;
13321;SDS011;6730;46.248;6.930;2023-05-24T11:26:44;21.98;;;16.73;;
13321;SDS011;6730;46.248;6.930;2023-05-24T11:29:14;19.20;;;15.98;;
13321;SDS011;6730;46.248;6.930;2023-05-24T11:31:53;22.92;;;17.95;;
13321;SDS011;6730;46.248;6.930;2023-05-24T11:34:28;21.20;;;15.23;;
13321;SDS011;6730;46.248;6.930;2023-05-24T11:36:56;17.80;;;15.05;;
13321;SDS011;6730;46.248;6.930;2023-05-24T11:39:27;22.08;;;15.90;;
13321;SDS011;6730;46.248;6.930;2023-05-24T11:41:54;19.17;;;15.90;;
13321;SDS011;6730;46.248;6.930;2023-05-24T11:44:20;22.02;;;15.95;;
13321;SDS011;6730;46.248;6.930;2023-05-24T11:46:46;18.65;;;14.40;;
13321;SDS011;6730;46.248;6.930;2023-05-24T11:49:15;18.02;;;14.60;;
13321;SDS011;6730;46.248;6.930;2023-05-24T11:51:41;20.30;;;14.88;;
13321;SDS011;6730;46.248;6.930;2023-05-24T11:54:08;18.50;;;14.52;;
13321;SDS011;6730;46.248;6.930;2023-05-24T11:56:33;19.92;;;15.02;;
13321;SDS011;6730;46.248;6.930;2023-05-24T12:01:41;19.20;;;16.02;;
13321;SDS011;6730;46.248;6.930;2023-05-24T12:04:08;22.52;;;15.93;;
13321;SDS011;6730;46.248;6.930;2023-05-24T12:06:40;23.08;;;16.23;;
13321;SDS011;6730;46.248;6.930;2023-05-24T12:09:07;22.40;;;16.40;;
13321;SDS011;6730;46.248;6.930;2023-05-24T12:11:38;23.23;;;16.20;;
13321;SDS011;6730;46.248;6.930;2023-05-24T12:14:05;23.73;;;16.60;;
13321;SDS011;6730;46.248;6.930;2023-05-24T12:16:35;20.95;;;15.68;;
13321;SDS011;6730;46.248;6.930;2023-05-24T12:19:00;18.40;;;15.27;;
13321;SDS011;6730;46.248;6.930;2023-05-24T12:21:29;20.40;;;15.55;;
13321;SDS011;6730;46.248;6.930;2023-05-24T12:23:55;17.92;;;14.68;;
13321;SDS011;6730;46.248;6.930;2023-05-24T12:26:22;18.65;;;14.02;;
13321;SDS011;6730;46.248;6.930;2023-05-24T12:28:51;21.45;;;15.50;;
13321;SDS011;6730;46.248;6.930;2023-05-24T12:31:19;20.48;;;15.85;;
13321;SDS011;6730;46.248;6.930;2023-05-24T12:33:46;20.08;;;14.52;;
13321;SDS011;6730;46.248;6.930;2023-05-24T12:36:11;18.40;;;13.82;;
13321;SDS011;6730;46.248;6.930;2023-05-24T12:38:37;17.38;;;14.90;;
13321;SDS011;6730;46.248;6.930;2023-05-24T12:41:03;19.88;;;15.65;;
13321;SDS011;6730;46.248;6.930;2023-05-24T12:43:30;17.23;;;13.48;;
13321;SDS011;6730;46.248;6.930;2023-05-24T12:45:56;16.20;;;14.00;;
13321;SDS011;6730;46.248;6.930;2023-05-24T12:48:22;18.00;;;14.88;;
13321;SDS011;6730;46.248;6.930;2023-05-24T12:50:48;19.73;;;13.82;;
13321;SDS011;6730;46.248;6.930;2023-05-24T12:53:15;17.08;;;14.32;;
13321;SDS011;6730;46.248;6.930;2023-05-24T12:55:40;19.92;;;15.48;;
13321;SDS011;6730;46.248;6.930;2023-05-24T12:58:06;16.73;;;13.82;;
13321;SDS011;6730;46.248;6.930;2023-05-24T13:00:33;15.70;;;12.77;;
13321;SDS011;6730;46.248;6.930;2023-05-24T13:02:59;15.20;;;13.60;;
13321;SDS011;6730;46.248;6.930;2023-05-24T13:05:25;13.93;;;12.05;;
13321;SDS011;6730;46.248;6.930;2023-05-24T13:07:51;13.88;;;11.38;;
13321;SDS011;6730;46.248;6.930;2023-05-24T13:10:18;13.73;;;10.85;;
13321;SDS011;6730;46.248;6.930;2023-05-24T13:12:44;15.85;;;12.32;;
13321;SDS011;6730;46.248;6.930;2023-05-24T13:15:11;19.40;;;14.68;;
13321;SDS011;6730;46.248;6.930;2023-05-24T13:17:37;13.00;;;11.60;;
13321;SDS011;6730;46.248;6.930;2023-05-24T13:20:04;15.88;;;12.38;;
13321;SDS011;6730;46.248;6.930;2023-05-24T13:22:34;14.70;;;12.50;;
13321;SDS011;6730;46.248;6.930;2023-05-24T13:25:02;17.50;;;13.73;;
13321;SDS011;6730;46.248;6.930;2023-05-24T13:27:28;17.55;;;13.48;;
13321;SDS011;6730;46.248;6.930;2023-05-24T13:29:54;17.60;;;13.15;;
13321;SDS011;6730;46.248;6.930;2023-05-24T13:32:20;21.33;;;15.20;;
13321;SDS011;6730;46.248;6.930;2023-05-24T13:34:46;18.85;;;14.38;;
13321;SDS011;6730;46.248;6.930;2023-05-24T13:37:12;21.42;;;16.90;;
13321;SDS011;6730;46.248;6.930;2023-05-24T13:39:38;19.88;;;16.25;;
13321;SDS011;6730;46.248;6.930;2023-05-24T13:42:03;19.70;;;15.65;;
13321;SDS011;6730;46.248;6.930;2023-05-24T13:44:30;18.10;;;13.32;;
13321;SDS011;6730;46.248;6.930;2023-05-24T13:46:56;14.30;;;10.95;;
13321;SDS011;6730;46.248;6.930;2023-05-24T13:49:22;20.13;;;14.80;;
13321;SDS011;6730;46.248;6.930;2023-05-24T13:51:48;19.08;;;15.60;;
13321;SDS011;6730;46.248;6.930;2023-05-24T13:54:13;20.25;;;14.65;;
13321;SDS011;6730;46.248;6.930;2023-05-24T13:56:40;20.08;;;14.43;;
13321;SDS011;6730;46.248;6.930;2023-05-24T13:59:08;15.43;;;13.23;;
13321;SDS011;6730;46.248;6.930;2023-05-24T14:01:34;17.83;;;14.60;;
13321;SDS011;6730;46.248;6.930;2023-05-24T14:04:03;13.43;;;11.15;;
13321;SDS011;6730;46.248;6.930;2023-05-24T14:06:31;14.93;;;12.45;;
13321;SDS011;6730;46.248;6.930;2023-05-24T14:08:57;15.57;;;12.85;;
13321;SDS011;6730;46.248;6.930;2023-05-24T14:11:23;14.63;;;12.35;;
13321;SDS011;6730;46.248;6.930;2023-05-24T14:13:50;16.13;;;13.82;;
13321;SDS011;6730;46.248;6.930;2023-05-24T14:16:16;16.92;;;13.43;;
13321;SDS011;6730;46.248;6.930;2023-05-24T14:18:42;17.05;;;13.60;;
13321;SDS011;6730;46.248;6.930;2023-05-24T14:21:08;16.90;;;12.98;;
13321;SDS011;6730;46.248;6.930;2023-05-24T14:23:34;19.63;;;13.95;;
13321;SDS011;6730;46.248;6.930;2023-05-24T14:26:00;15.35;;;13.18;;
13321;SDS011;6730;46.248;6.930;2023-05-24T14:28:26;17.27;;;13.90;;
13321;SDS011;6730;46.248;6.930;2023-05-24T14:30:51;18.17;;;14.52;;
13321;SDS011;6730;46.248;6.930;2023-05-24T14:33:17;18.30;;;14.18;;
13321;SDS011;6730;46.248;6.930;2023-05-24T14:35:43;16.30;;;12.82;;
13321;SDS011;6730;46.248;6.930;2023-05-24T14:38:09;19.15;;;13.25;;
13321;SDS011;6730;46.248;6.930;2023-05-24T14:40:35;15.63;;;13.23;;
13321;SDS011;6730;46.248;6.930;2023-05-24T14:43:03;18.27;;;13.32;;
13321;SDS011;6730;46.248;6.930;2023-05-24T14:45:34;13.43;;;11.30;;
13321;SDS011;6730;46.248;6.930;2023-05-24T14:47:59;18.10;;;14.02;;
13321;SDS011;6730;46.248;6.930;2023-05-24T14:50:26;17.13;;;14.00;;
13321;SDS011;6730;46.248;6.930;2023-05-24T14:52:52;15.43;;;13.25;;
13321;SDS011;6730;46.248;6.930;2023-05-24T14:55:17;19.05;;;14.73;;
13321;SDS011;6730;46.248;6.930;2023-05-24T14:57:43;20.10;;;14.10;;
13321;SDS011;6730;46.248;6.930;2023-05-24T15:00:09;14.02;;;11.77;;
13321;SDS011;6730;46.248;6.930;2023-05-24T15:02:35;14.90;;;13.25;;
13321;SDS011;6730;46.248;6.930;2023-05-24T15:05:01;16.33;;;12.95;;
13321;SDS011;6730;46.248;6.930;2023-05-24T15:07:27;14.90;;;12.65;;
13321;SDS011;6730;46.248;6.930;2023-05-24T15:09:53;15.90;;;12.65;;